Terminal Aerodrome Forecast
Issued by NWS Brownsville, TX

Home | Current Version | Previous Version | Text Only | Print | Product List | Glossary On
Versions: 1 2 3 4 5 6 7 8 9 10 11 12 13 14 15 16 17 18
000
FTUS44 KBRO 242325
TAFMFE
TAF
KMFE 242325Z 2500/2524 14017G23KT P6SM BKN025 OVC150
     FM250200 16008KT 6SM BR BKN012
      TEMPO 2502/2505 VRB23G40KT 2SM +TSRA BKN012CB
     FM250800 14008KT 6SM BR VCSH BKN008
     FM251500 14010KT P6SM OVC022=

USA.gov is the U.S. government's official web portal to all federal, state and local government web resources and services.